sensor_id;sensor_type;location;lat;lon;timestamp;P1;durP1;ratioP1;P2;durP2;ratioP2
43744;SDS011;29359;53.048;8.732;2024-01-10T00:01:04;13.07;;;7.80;;
43744;SDS011;29359;53.048;8.732;2024-01-10T00:03:05;13.70;;;8.25;;
43744;SDS011;29359;53.048;8.732;2024-01-10T00:05:08;13.15;;;8.45;;
43744;SDS011;29359;53.048;8.732;2024-01-10T00:07:09;12.07;;;7.90;;
43744;SDS011;29359;53.048;8.732;2024-01-10T00:09:11;13.45;;;7.25;;
43744;SDS011;29359;53.048;8.732;2024-01-10T00:11:13;15.63;;;8.38;;
43744;SDS011;29359;53.048;8.732;2024-01-10T00:13:15;14.77;;;9.35;;
43744;SDS011;29359;53.048;8.732;2024-01-10T00:15:17;16.63;;;8.48;;
43744;SDS011;29359;53.048;8.732;2024-01-10T00:17:19;14.60;;;9.10;;
43744;SDS011;29359;53.048;8.732;2024-01-10T00:19:20;14.35;;;9.23;;
43744;SDS011;29359;53.048;8.732;2024-01-10T00:21:22;13.68;;;9.00;;
43744;SDS011;29359;53.048;8.732;2024-01-10T00:23:24;13.90;;;8.13;;
43744;SDS011;29359;53.048;8.732;2024-01-10T00:25:26;18.30;;;9.25;;
43744;SDS011;29359;53.048;8.732;2024-01-10T00:27:28;14.75;;;8.68;;
43744;SDS011;29359;53.048;8.732;2024-01-10T00:29:29;17.23;;;8.77;;
43744;SDS011;29359;53.048;8.732;2024-01-10T00:31:31;10.75;;;8.18;;
43744;SDS011;29359;53.048;8.732;2024-01-10T00:33:33;15.77;;;8.63;;
43744;SDS011;29359;53.048;8.732;2024-01-10T00:35:35;15.10;;;8.95;;
43744;SDS011;29359;53.048;8.732;2024-01-10T00:37:37;14.43;;;8.43;;
43744;SDS011;29359;53.048;8.732;2024-01-10T00:39:39;12.98;;;8.48;;
43744;SDS011;29359;53.048;8.732;2024-01-10T00:41:41;14.13;;;9.10;;
43744;SDS011;29359;53.048;8.732;2024-01-10T00:43:43;14.00;;;8.73;;
43744;SDS011;29359;53.048;8.732;2024-01-10T00:45:44;14.35;;;7.57;;
43744;SDS011;29359;53.048;8.732;2024-01-10T00:47:50;19.50;;;8.55;;
43744;SDS011;29359;53.048;8.732;2024-01-10T00:49:52;11.70;;;7.95;;
43744;SDS011;29359;53.048;8.732;2024-01-10T00:51:53;12.82;;;8.13;;
43744;SDS011;29359;53.048;8.732;2024-01-10T00:53:55;14.65;;;8.40;;
43744;SDS011;29359;53.048;8.732;2024-01-10T00:55:57;10.35;;;7.70;;
43744;SDS011;29359;53.048;8.732;2024-01-10T00:57:59;10.68;;;7.65;;
43744;SDS011;29359;53.048;8.732;2024-01-10T01:00:00;13.10;;;8.15;;
43744;SDS011;29359;53.048;8.732;2024-01-10T01:02:02;14.02;;;8.43;;
43744;SDS011;29359;53.048;8.732;2024-01-10T01:04:04;15.52;;;8.55;;
43744;SDS011;29359;53.048;8.732;2024-01-10T01:06:06;15.93;;;8.60;;
43744;SDS011;29359;53.048;8.732;2024-01-10T01:08:08;13.82;;;7.82;;
43744;SDS011;29359;53.048;8.732;2024-01-10T01:10:10;13.02;;;8.02;;
43744;SDS011;29359;53.048;8.732;2024-01-10T01:12:12;12.93;;;7.88;;
43744;SDS011;29359;53.048;8.732;2024-01-10T01:14:13;13.48;;;8.23;;
43744;SDS011;29359;53.048;8.732;2024-01-10T01:16:15;13.73;;;7.75;;
43744;SDS011;29359;53.048;8.732;2024-01-10T01:18:17;19.50;;;8.75;;
43744;SDS011;29359;53.048;8.732;2024-01-10T01:20:20;13.70;;;8.05;;
43744;SDS011;29359;53.048;8.732;2024-01-10T01:22:22;14.60;;;9.05;;
43744;SDS011;29359;53.048;8.732;2024-01-10T01:24:24;14.65;;;9.18;;
43744;SDS011;29359;53.048;8.732;2024-01-10T01:26:26;13.07;;;8.60;;
43744;SDS011;29359;53.048;8.732;2024-01-10T01:28:27;13.32;;;8.60;;
43744;SDS011;29359;53.048;8.732;2024-01-10T01:30:29;12.70;;;8.10;;
43744;SDS011;29359;53.048;8.732;2024-01-10T01:32:31;14.68;;;8.55;;
43744;SDS011;29359;53.048;8.732;2024-01-10T01:34:33;15.77;;;8.48;;
43744;SDS011;29359;53.048;8.732;2024-01-10T01:36:35;15.23;;;8.63;;
43744;SDS011;29359;53.048;8.732;2024-01-10T01:38:36;12.80;;;8.25;;
43744;SDS011;29359;53.048;8.732;2024-01-10T01:40:38;12.10;;;8.45;;
43744;SDS011;29359;53.048;8.732;2024-01-10T01:42:40;13.73;;;8.98;;
43744;SDS011;29359;53.048;8.732;2024-01-10T01:44:42;14.15;;;8.20;;
43744;SDS011;29359;53.048;8.732;2024-01-10T01:46:44;15.05;;;8.35;;
43744;SDS011;29359;53.048;8.732;2024-01-10T01:48:48;13.60;;;8.63;;
43744;SDS011;29359;53.048;8.732;2024-01-10T01:50:52;12.05;;;8.35;;
43744;SDS011;29359;53.048;8.732;2024-01-10T01:52:57;12.43;;;8.90;;
43744;SDS011;29359;53.048;8.732;2024-01-10T01:54:59;12.52;;;8.88;;
43744;SDS011;29359;53.048;8.732;2024-01-10T01:57:00;12.73;;;8.23;;
43744;SDS011;29359;53.048;8.732;2024-01-10T01:59:03;16.60;;;9.10;;
43744;SDS011;29359;53.048;8.732;2024-01-10T02:01:06;14.00;;;8.75;;
43744;SDS011;29359;53.048;8.732;2024-01-10T02:03:08;14.75;;;8.65;;
43744;SDS011;29359;53.048;8.732;2024-01-10T02:05:11;12.98;;;8.65;;
43744;SDS011;29359;53.048;8.732;2024-01-10T02:07:15;12.60;;;8.95;;
43744;SDS011;29359;53.048;8.732;2024-01-10T02:09:17;13.88;;;8.82;;
43744;SDS011;29359;53.048;8.732;2024-01-10T02:11:19;14.68;;;9.02;;
43744;SDS011;29359;53.048;8.732;2024-01-10T02:13:22;15.63;;;9.23;;
43744;SDS011;29359;53.048;8.732;2024-01-10T02:15:24;18.52;;;10.68;;
43744;SDS011;29359;53.048;8.732;2024-01-10T02:17:26;16.52;;;11.07;;
43744;SDS011;29359;53.048;8.732;2024-01-10T02:19:28;17.77;;;9.98;;
43744;SDS011;29359;53.048;8.732;2024-01-10T02:21:31;15.32;;;8.98;;
43744;SDS011;29359;53.048;8.732;2024-01-10T02:23:32;12.15;;;8.18;;
43744;SDS011;29359;53.048;8.732;2024-01-10T02:25:34;16.92;;;8.88;;
43744;SDS011;29359;53.048;8.732;2024-01-10T02:27:36;15.15;;;8.65;;
43744;SDS011;29359;53.048;8.732;2024-01-10T02:29:39;14.52;;;7.93;;
43744;SDS011;29359;53.048;8.732;2024-01-10T02:31:41;15.02;;;9.02;;
43744;SDS011;29359;53.048;8.732;2024-01-10T02:33:42;12.20;;;8.43;;
43744;SDS011;29359;53.048;8.732;2024-01-10T02:35:44;15.40;;;9.55;;
43744;SDS011;29359;53.048;8.732;2024-01-10T02:37:46;17.52;;;9.55;;
43744;SDS011;29359;53.048;8.732;2024-01-10T02:39:48;13.27;;;8.88;;
43744;SDS011;29359;53.048;8.732;2024-01-10T02:41:50;16.17;;;9.07;;
43744;SDS011;29359;53.048;8.732;2024-01-10T02:43:51;13.90;;;9.18;;
43744;SDS011;29359;53.048;8.732;2024-01-10T02:45:53;15.38;;;9.63;;
43744;SDS011;29359;53.048;8.732;2024-01-10T02:47:55;11.88;;;7.20;;
43744;SDS011;29359;53.048;8.732;2024-01-10T02:49:57;14.18;;;9.07;;
43744;SDS011;29359;53.048;8.732;2024-01-10T02:51:59;14.57;;;8.90;;
43744;SDS011;29359;53.048;8.732;2024-01-10T02:54:01;13.85;;;9.10;;
43744;SDS011;29359;53.048;8.732;2024-01-10T02:56:03;13.07;;;9.02;;
43744;SDS011;29359;53.048;8.732;2024-01-10T02:58:04;15.38;;;9.25;;
43744;SDS011;29359;53.048;8.732;2024-01-10T03:00:06;15.75;;;9.20;;
43744;SDS011;29359;53.048;8.732;2024-01-10T03:02:09;16.55;;;10.50;;
43744;SDS011;29359;53.048;8.732;2024-01-10T03:04:11;19.30;;;10.40;;
43744;SDS011;29359;53.048;8.732;2024-01-10T03:06:12;15.00;;;9.02;;
43744;SDS011;29359;53.048;8.732;2024-01-10T03:08:14;12.60;;;8.82;;
43744;SDS011;29359;53.048;8.732;2024-01-10T03:10:16;17.17;;;8.60;;
43744;SDS011;29359;53.048;8.732;2024-01-10T03:12:18;13.35;;;9.07;;
43744;SDS011;29359;53.048;8.732;2024-01-10T03:14:20;15.30;;;10.20;;
43744;SDS011;29359;53.048;8.732;2024-01-10T03:16:22;18.33;;;9.88;;
43744;SDS011;29359;53.048;8.732;2024-01-10T03:18:23;13.15;;;9.07;;
43744;SDS011;29359;53.048;8.732;2024-01-10T03:20:25;14.90;;;9.75;;
43744;SDS011;29359;53.048;8.732;2024-01-10T03:22:28;16.13;;;9.82;;
43744;SDS011;29359;53.048;8.732;2024-01-10T03:24:30;15.13;;;9.18;;
43744;SDS011;29359;53.048;8.732;2024-01-10T03:26:33;19.67;;;9.48;;
43744;SDS011;29359;53.048;8.732;2024-01-10T03:28:35;14.55;;;9.07;;
43744;SDS011;29359;53.048;8.732;2024-01-10T03:30:37;15.10;;;9.40;;
43744;SDS011;29359;53.048;8.732;2024-01-10T03:32:39;13.73;;;9.20;;
43744;SDS011;29359;53.048;8.732;2024-01-10T03:34:41;11.98;;;9.05;;
43744;SDS011;29359;53.048;8.732;2024-01-10T03:36:44;13.70;;;9.75;;
43744;SDS011;29359;53.048;8.732;2024-01-10T03:38:45;15.70;;;9.90;;
43744;SDS011;29359;53.048;8.732;2024-01-10T03:40:47;14.25;;;9.07;;
43744;SDS011;29359;53.048;8.732;2024-01-10T03:42:49;12.90;;;9.23;;
43744;SDS011;29359;53.048;8.732;2024-01-10T03:44:52;14.13;;;9.45;;
43744;SDS011;29359;53.048;8.732;2024-01-10T03:46:53;16.70;;;9.82;;
43744;SDS011;29359;53.048;8.732;2024-01-10T03:48:56;17.20;;;10.02;;
43744;SDS011;29359;53.048;8.732;2024-01-10T03:50:58;13.98;;;9.57;;
43744;SDS011;29359;53.048;8.732;2024-01-10T03:53:00;15.77;;;9.80;;
43744;SDS011;29359;53.048;8.732;2024-01-10T03:55:02;12.73;;;8.80;;
43744;SDS011;29359;53.048;8.732;2024-01-10T03:57:04;12.93;;;8.88;;
43744;SDS011;29359;53.048;8.732;2024-01-10T03:59:06;14.88;;;9.57;;
43744;SDS011;29359;53.048;8.732;2024-01-10T04:01:08;15.95;;;9.70;;
43744;SDS011;29359;53.048;8.732;2024-01-10T04:03:10;13.85;;;8.80;;
43744;SDS011;29359;53.048;8.732;2024-01-10T04:05:12;16.75;;;9.10;;
43744;SDS011;29359;53.048;8.732;2024-01-10T04:07:15;15.27;;;9.35;;
43744;SDS011;29359;53.048;8.732;2024-01-10T04:09:16;16.95;;;9.82;;
43744;SDS011;29359;53.048;8.732;2024-01-10T04:11:18;15.40;;;9.20;;
43744;SDS011;29359;53.048;8.732;2024-01-10T04:13:20;12.07;;;8.65;;
43744;SDS011;29359;53.048;8.732;2024-01-10T04:15:22;18.45;;;10.25;;
43744;SDS011;29359;53.048;8.732;2024-01-10T04:17:24;14.48;;;8.82;;
43744;SDS011;29359;53.048;8.732;2024-01-10T04:19:26;15.68;;;10.15;;
43744;SDS011;29359;53.048;8.732;2024-01-10T04:21:27;15.73;;;9.50;;
43744;SDS011;29359;53.048;8.732;2024-01-10T04:23:29;14.27;;;9.20;;
43744;SDS011;29359;53.048;8.732;2024-01-10T04:25:32;15.88;;;10.05;;
43744;SDS011;29359;53.048;8.732;2024-01-10T04:27:34;17.92;;;9.98;;
43744;SDS011;29359;53.048;8.732;2024-01-10T04:29:35;18.52;;;10.35;;
43744;SDS011;29359;53.048;8.732;2024-01-10T04:31:37;17.92;;;10.90;;
43744;SDS011;29359;53.048;8.732;2024-01-10T04:33:40;16.42;;;10.38;;
43744;SDS011;29359;53.048;8.732;2024-01-10T04:35:41;18.75;;;10.73;;
43744;SDS011;29359;53.048;8.732;2024-01-10T04:37:43;21.45;;;12.10;;
43744;SDS011;29359;53.048;8.732;2024-01-10T04:39:45;18.10;;;10.02;;
43744;SDS011;29359;53.048;8.732;2024-01-10T04:41:47;17.23;;;11.10;;
43744;SDS011;29359;53.048;8.732;2024-01-10T04:43:48;19.10;;;11.07;;
43744;SDS011;29359;53.048;8.732;2024-01-10T04:45:50;18.52;;;11.00;;
43744;SDS011;29359;53.048;8.732;2024-01-10T04:47:52;17.83;;;11.38;;
43744;SDS011;29359;53.048;8.732;2024-01-10T04:49:54;21.40;;;12.25;;
43744;SDS011;29359;53.048;8.732;2024-01-10T04:51:55;18.80;;;11.30;;
43744;SDS011;29359;53.048;8.732;2024-01-10T04:53:57;14.02;;;10.10;;
43744;SDS011;29359;53.048;8.732;2024-01-10T04:55:59;16.38;;;10.75;;
43744;SDS011;29359;53.048;8.732;2024-01-10T04:58:01;16.75;;;11.02;;
43744;SDS011;29359;53.048;8.732;2024-01-10T05:00:03;17.10;;;10.95;;
43744;SDS011;29359;53.048;8.732;2024-01-10T05:02:06;18.23;;;10.88;;
43744;SDS011;29359;53.048;8.732;2024-01-10T05:04:08;18.08;;;11.02;;
43744;SDS011;29359;53.048;8.732;2024-01-10T05:06:10;17.67;;;9.98;;
43744;SDS011;29359;53.048;8.732;2024-01-10T05:08:12;16.30;;;9.70;;
43744;SDS011;29359;53.048;8.732;2024-01-10T05:10:14;16.45;;;10.07;;
43744;SDS011;29359;53.048;8.732;2024-01-10T05:12:16;15.57;;;9.95;;
43744;SDS011;29359;53.048;8.732;2024-01-10T05:14:18;19.88;;;10.27;;
43744;SDS011;29359;53.048;8.732;2024-01-10T05:16:23;18.40;;;11.13;;
43744;SDS011;29359;53.048;8.732;2024-01-10T05:18:25;19.08;;;11.07;;
43744;SDS011;29359;53.048;8.732;2024-01-10T05:20:27;18.45;;;10.82;;
43744;SDS011;29359;53.048;8.732;2024-01-10T05:22:29;19.55;;;11.20;;
43744;SDS011;29359;53.048;8.732;2024-01-10T05:24:31;20.48;;;11.98;;
43744;SDS011;29359;53.048;8.732;2024-01-10T05:26:32;21.08;;;11.95;;
43744;SDS011;29359;53.048;8.732;2024-01-10T05:28:34;17.65;;;11.13;;
43744;SDS011;29359;53.048;8.732;2024-01-10T05:30:36;17.17;;;10.82;;
43744;SDS011;29359;53.048;8.732;2024-01-10T05:32:38;20.15;;;12.40;;
43744;SDS011;29359;53.048;8.732;2024-01-10T05:34:40;16.88;;;10.88;;
43744;SDS011;29359;53.048;8.732;2024-01-10T05:36:41;20.58;;;11.02;;
43744;SDS011;29359;53.048;8.732;2024-01-10T05:38:43;20.38;;;10.73;;
43744;SDS011;29359;53.048;8.732;2024-01-10T05:40:45;18.27;;;11.32;;
43744;SDS011;29359;53.048;8.732;2024-01-10T05:42:47;15.98;;;11.00;;
43744;SDS011;29359;53.048;8.732;2024-01-10T05:44:49;16.65;;;9.95;;
43744;SDS011;29359;53.048;8.732;2024-01-10T05:46:50;22.05;;;10.73;;
43744;SDS011;29359;53.048;8.732;2024-01-10T05:48:53;19.92;;;10.90;;
43744;SDS011;29359;53.048;8.732;2024-01-10T05:50:55;17.30;;;10.98;;
43744;SDS011;29359;53.048;8.732;2024-01-10T05:52:57;15.52;;;9.95;;
43744;SDS011;29359;53.048;8.732;2024-01-10T05:54:59;17.38;;;10.52;;
43744;SDS011;29359;53.048;8.732;2024-01-10T05:57:04;16.33;;;8.98;;
43744;SDS011;29359;53.048;8.732;2024-01-10T05:59:05;16.27;;;9.60;;
43744;SDS011;29359;53.048;8.732;2024-01-10T06:01:07;17.92;;;9.15;;
43744;SDS011;29359;53.048;8.732;2024-01-10T06:03:12;13.30;;;8.77;;
43744;SDS011;29359;53.048;8.732;2024-01-10T06:05:14;16.58;;;9.45;;
43744;SDS011;29359;53.048;8.732;2024-01-10T06:07:16;16.58;;;9.68;;
43744;SDS011;29359;53.048;8.732;2024-01-10T06:09:17;14.10;;;9.27;;
43744;SDS011;29359;53.048;8.732;2024-01-10T06:11:23;11.55;;;7.63;;
43744;SDS011;29359;53.048;8.732;2024-01-10T06:13:25;15.52;;;9.02;;
43744;SDS011;29359;53.048;8.732;2024-01-10T06:15:35;15.52;;;8.70;;
43744;SDS011;29359;53.048;8.732;2024-01-10T06:17:36;10.88;;;7.72;;
43744;SDS011;29359;53.048;8.732;2024-01-10T06:19:39;14.18;;;9.35;;
43744;SDS011;29359;53.048;8.732;2024-01-10T06:21:41;14.02;;;7.85;;
43744;SDS011;29359;53.048;8.732;2024-01-10T06:23:43;13.65;;;8.85;;
43744;SDS011;29359;53.048;8.732;2024-01-10T06:25:46;16.15;;;8.90;;
43744;SDS011;29359;53.048;8.732;2024-01-10T06:27:48;14.82;;;9.07;;
43744;SDS011;29359;53.048;8.732;2024-01-10T06:29:50;15.20;;;8.50;;
43744;SDS011;29359;53.048;8.732;2024-01-10T06:31:52;13.73;;;8.23;;
43744;SDS011;29359;53.048;8.732;2024-01-10T06:33:55;16.60;;;9.15;;
43744;SDS011;29359;53.048;8.732;2024-01-10T06:35:57;16.67;;;9.52;;
43744;SDS011;29359;53.048;8.732;2024-01-10T06:37:59;16.15;;;9.48;;
43744;SDS011;29359;53.048;8.732;2024-01-10T06:40:05;14.75;;;9.00;;
43744;SDS011;29359;53.048;8.732;2024-01-10T06:42:08;14.07;;;8.90;;
43744;SDS011;29359;53.048;8.732;2024-01-10T06:44:12;17.55;;;7.90;;
43744;SDS011;29359;53.048;8.732;2024-01-10T06:46:14;14.70;;;8.82;;
43744;SDS011;29359;53.048;8.732;2024-01-10T06:48:16;18.88;;;9.15;;
43744;SDS011;29359;53.048;8.732;2024-01-10T06:50:18;14.88;;;9.13;;
43744;SDS011;29359;53.048;8.732;2024-01-10T06:52:21;15.38;;;8.75;;
43744;SDS011;29359;53.048;8.732;2024-01-10T06:54:23;13.77;;;8.10;;
43744;SDS011;29359;53.048;8.732;2024-01-10T06:56:25;14.60;;;8.98;;
43744;SDS011;29359;53.048;8.732;2024-01-10T06:58:27;15.70;;;7.97;;
43744;SDS011;29359;53.048;8.732;2024-01-10T07:00:29;13.68;;;8.68;;
43744;SDS011;29359;53.048;8.732;2024-01-10T07:02:31;12.50;;;8.10;;
43744;SDS011;29359;53.048;8.732;2024-01-10T07:04:36;13.27;;;8.02;;
43744;SDS011;29359;53.048;8.732;2024-01-10T07:06:39;12.60;;;7.97;;
43744;SDS011;29359;53.048;8.732;2024-01-10T07:08:41;13.77;;;7.88;;
43744;SDS011;29359;53.048;8.732;2024-01-10T07:10:48;13.75;;;8.40;;
43744;SDS011;29359;53.048;8.732;2024-01-10T07:12:51;12.05;;;7.43;;
43744;SDS011;29359;53.048;8.732;2024-01-10T07:14:53;13.75;;;7.68;;
43744;SDS011;29359;53.048;8.732;2024-01-10T07:16:55;13.70;;;7.88;;
43744;SDS011;29359;53.048;8.732;2024-01-10T07:18:58;14.02;;;7.75;;
43744;SDS011;29359;53.048;8.732;2024-01-10T07:21:01;14.05;;;8.38;;
43744;SDS011;29359;53.048;8.732;2024-01-10T07:23:03;13.05;;;8.00;;
43744;SDS011;29359;53.048;8.732;2024-01-10T07:25:05;11.43;;;7.88;;
43744;SDS011;29359;53.048;8.732;2024-01-10T07:27:09;13.98;;;7.88;;
43744;SDS011;29359;53.048;8.732;2024-01-10T07:29:11;12.75;;;8.07;;
43744;SDS011;29359;53.048;8.732;2024-01-10T07:31:13;11.48;;;7.28;;
43744;SDS011;29359;53.048;8.732;2024-01-10T07:33:14;10.75;;;7.68;;
43744;SDS011;29359;53.048;8.732;2024-01-10T07:35:17;12.70;;;8.00;;
43744;SDS011;29359;53.048;8.732;2024-01-10T07:37:19;17.10;;;9.10;;
43744;SDS011;29359;53.048;8.732;2024-01-10T07:39:22;13.60;;;7.88;;
43744;SDS011;29359;53.048;8.732;2024-01-10T07:41:24;16.75;;;8.50;;
43744;SDS011;29359;53.048;8.732;2024-01-10T07:43:26;15.77;;;7.85;;
43744;SDS011;29359;53.048;8.732;2024-01-10T07:45:28;16.17;;;8.88;;
43744;SDS011;29359;53.048;8.732;2024-01-10T07:47:30;14.77;;;8.60;;
43744;SDS011;29359;53.048;8.732;2024-01-10T07:49:33;13.10;;;8.15;;
43744;SDS011;29359;53.048;8.732;2024-01-10T07:51:35;16.77;;;8.82;;
43744;SDS011;29359;53.048;8.732;2024-01-10T07:53:36;13.43;;;7.72;;
43744;SDS011;29359;53.048;8.732;2024-01-10T07:55:38;13.27;;;8.15;;
43744;SDS011;29359;53.048;8.732;2024-01-10T07:57:41;13.00;;;7.10;;
43744;SDS011;29359;53.048;8.732;2024-01-10T07:59:44;15.43;;;8.45;;
43744;SDS011;29359;53.048;8.732;2024-01-10T08:01:54;13.20;;;8.18;;
43744;SDS011;29359;53.048;8.732;2024-01-10T08:04:00;12.07;;;7.95;;
43744;SDS011;29359;53.048;8.732;2024-01-10T08:06:02;14.77;;;8.15;;
43744;SDS011;29359;53.048;8.732;2024-01-10T08:08:04;12.65;;;7.95;;
43744;SDS011;29359;53.048;8.732;2024-01-10T08:10:07;18.08;;;8.63;;
43744;SDS011;29359;53.048;8.732;2024-01-10T08:12:11;14.50;;;9.13;;
43744;SDS011;29359;53.048;8.732;2024-01-10T08:14:14;12.23;;;7.38;;
43744;SDS011;29359;53.048;8.732;2024-01-10T08:16:16;13.93;;;8.57;;
43744;SDS011;29359;53.048;8.732;2024-01-10T08:18:19;17.40;;;8.35;;
43744;SDS011;29359;53.048;8.732;2024-01-10T08:20:21;15.98;;;9.20;;
43744;SDS011;29359;53.048;8.732;2024-01-10T08:22:24;13.63;;;7.32;;
43744;SDS011;29359;53.048;8.732;2024-01-10T08:24:28;15.77;;;9.82;;
43744;SDS011;29359;53.048;8.732;2024-01-10T08:26:30;14.15;;;8.57;;
43744;SDS011;29359;53.048;8.732;2024-01-10T08:28:32;14.57;;;8.48;;
43744;SDS011;29359;53.048;8.732;2024-01-10T08:30:34;16.35;;;9.02;;
43744;SDS011;29359;53.048;8.732;2024-01-10T08:32:36;15.93;;;9.02;;
43744;SDS011;29359;53.048;8.732;2024-01-10T08:34:38;12.70;;;8.63;;
43744;SDS011;29359;53.048;8.732;2024-01-10T08:36:40;14.02;;;9.05;;
43744;SDS011;29359;53.048;8.732;2024-01-10T08:38:42;14.77;;;9.40;;
43744;SDS011;29359;53.048;8.732;2024-01-10T08:40:43;14.93;;;8.82;;
43744;SDS011;29359;53.048;8.732;2024-01-10T08:42:45;18.15;;;9.77;;
43744;SDS011;29359;53.048;8.732;2024-01-10T08:44:47;16.05;;;9.00;;
43744;SDS011;29359;53.048;8.732;2024-01-10T08:46:49;15.82;;;10.23;;
43744;SDS011;29359;53.048;8.732;2024-01-10T08:48:52;14.02;;;8.82;;
43744;SDS011;29359;53.048;8.732;2024-01-10T08:50:54;28.30;;;9.75;;
43744;SDS011;29359;53.048;8.732;2024-01-10T08:52:57;18.30;;;10.52;;
43744;SDS011;29359;53.048;8.732;2024-01-10T08:54:59;13.63;;;9.32;;
43744;SDS011;29359;53.048;8.732;2024-01-10T08:57:01;15.23;;;8.93;;
43744;SDS011;29359;53.048;8.732;2024-01-10T08:59:04;15.95;;;9.23;;
43744;SDS011;29359;53.048;8.732;2024-01-10T09:01:07;16.13;;;9.20;;
43744;SDS011;29359;53.048;8.732;2024-01-10T09:03:12;18.23;;;9.68;;
43744;SDS011;29359;53.048;8.732;2024-01-10T09:05:14;13.52;;;7.88;;
43744;SDS011;29359;53.048;8.732;2024-01-10T09:07:18;16.33;;;8.80;;
43744;SDS011;29359;53.048;8.732;2024-01-10T09:09:21;16.60;;;8.85;;
43744;SDS011;29359;53.048;8.732;2024-01-10T09:11:23;17.90;;;9.50;;
43744;SDS011;29359;53.048;8.732;2024-01-10T09:13:26;15.75;;;8.65;;
43744;SDS011;29359;53.048;8.732;2024-01-10T09:15:30;16.75;;;9.20;;
43744;SDS011;29359;53.048;8.732;2024-01-10T09:17:32;17.60;;;9.57;;
43744;SDS011;29359;53.048;8.732;2024-01-10T09:19:34;14.60;;;8.98;;
43744;SDS011;29359;53.048;8.732;2024-01-10T09:21:36;14.10;;;8.38;;
43744;SDS011;29359;53.048;8.732;2024-01-10T09:23:38;16.50;;;9.02;;
43744;SDS011;29359;53.048;8.732;2024-01-10T09:25:40;18.50;;;9.02;;
43744;SDS011;29359;53.048;8.732;2024-01-10T09:27:42;13.73;;;9.15;;
43744;SDS011;29359;53.048;8.732;2024-01-10T09:29:45;16.30;;;9.60;;
43744;SDS011;29359;53.048;8.732;2024-01-10T09:31:47;14.98;;;9.23;;
43744;SDS011;29359;53.048;8.732;2024-01-10T09:33:49;16.25;;;9.23;;
43744;SDS011;29359;53.048;8.732;2024-01-10T09:35:51;15.35;;;9.25;;
43744;SDS011;29359;53.048;8.732;2024-01-10T09:37:53;14.93;;;8.38;;
43744;SDS011;29359;53.048;8.732;2024-01-10T09:39:58;15.02;;;8.95;;
43744;SDS011;29359;53.048;8.732;2024-01-10T09:42:00;15.50;;;8.38;;
43744;SDS011;29359;53.048;8.732;2024-01-10T09:44:04;12.25;;;7.43;;
43744;SDS011;29359;53.048;8.732;2024-01-10T09:46:07;16.92;;;8.57;;
43744;SDS011;29359;53.048;8.732;2024-01-10T09:48:09;13.77;;;8.25;;
43744;SDS011;29359;53.048;8.732;2024-01-10T09:50:11;12.70;;;7.75;;
43744;SDS011;29359;53.048;8.732;2024-01-10T09:52:16;15.27;;;8.77;;
43744;SDS011;29359;53.048;8.732;2024-01-10T09:54:26;12.55;;;7.70;;
43744;SDS011;29359;53.048;8.732;2024-01-10T09:56:31;15.07;;;7.55;;
43744;SDS011;29359;53.048;8.732;2024-01-10T09:58:33;16.40;;;8.38;;
43744;SDS011;29359;53.048;8.732;2024-01-10T10:00:40;12.80;;;8.25;;
43744;SDS011;29359;53.048;8.732;2024-01-10T10:02:42;16.38;;;8.32;;
43744;SDS011;29359;53.048;8.732;2024-01-10T10:05:29;14.68;;;8.35;;
43744;SDS011;29359;53.048;8.732;2024-01-10T10:07:17;11.88;;;7.40;;
43744;SDS011;29359;53.048;8.732;2024-01-10T10:09:19;11.40;;;7.57;;
43744;SDS011;29359;53.048;8.732;2024-01-10T10:11:21;11.80;;;7.80;;
43744;SDS011;29359;53.048;8.732;2024-01-10T10:13:29;12.32;;;7.25;;
43744;SDS011;29359;53.048;8.732;2024-01-10T10:15:31;11.65;;;7.57;;
43744;SDS011;29359;53.048;8.732;2024-01-10T10:17:33;11.25;;;6.88;;
43744;SDS011;29359;53.048;8.732;2024-01-10T10:19:35;9.73;;;6.10;;
43744;SDS011;29359;53.048;8.732;2024-01-10T10:21:41;12.23;;;7.38;;
43744;SDS011;29359;53.048;8.732;2024-01-10T10:23:57;12.30;;;6.93;;
43744;SDS011;29359;53.048;8.732;2024-01-10T10:26:12;9.50;;;6.60;;
43744;SDS011;29359;53.048;8.732;2024-01-10T10:28:21;11.82;;;7.30;;
43744;SDS011;29359;53.048;8.732;2024-01-10T10:30:33;14.77;;;8.02;;
43744;SDS011;29359;53.048;8.732;2024-01-10T10:32:35;11.23;;;7.10;;
43744;SDS011;29359;53.048;8.732;2024-01-10T10:34:37;13.43;;;7.07;;
43744;SDS011;29359;53.048;8.732;2024-01-10T10:36:39;10.13;;;6.53;;
43744;SDS011;29359;53.048;8.732;2024-01-10T10:38:44;15.48;;;6.40;;
43744;SDS011;29359;53.048;8.732;2024-01-10T10:40:48;12.35;;;6.75;;
43744;SDS011;29359;53.048;8.732;2024-01-10T10:42:54;8.40;;;5.32;;
43744;SDS011;29359;53.048;8.732;2024-01-10T10:45:02;11.55;;;7.05;;
43744;SDS011;29359;53.048;8.732;2024-01-10T10:47:05;12.57;;;7.32;;
43744;SDS011;29359;53.048;8.732;2024-01-10T10:49:13;11.38;;;6.97;;
43744;SDS011;29359;53.048;8.732;2024-01-10T10:53:35;17.40;;;7.60;;
43744;SDS011;29359;53.048;8.732;2024-01-10T10:55:39;10.25;;;6.45;;
43744;SDS011;29359;53.048;8.732;2024-01-10T10:57:46;13.05;;;6.85;;
43744;SDS011;29359;53.048;8.732;2024-01-10T11:00:05;11.65;;;7.85;;
43744;SDS011;29359;53.048;8.732;2024-01-10T11:02:09;10.93;;;7.43;;
43744;SDS011;29359;53.048;8.732;2024-01-10T11:04:12;14.70;;;7.55;;
43744;SDS011;29359;53.048;8.732;2024-01-10T11:06:15;10.23;;;6.75;;
43744;SDS011;29359;53.048;8.732;2024-01-10T11:08:20;14.55;;;7.82;;
43744;SDS011;29359;53.048;8.732;2024-01-10T11:10:26;11.75;;;7.43;;
43744;SDS011;29359;53.048;8.732;2024-01-10T11:20:04;12.93;;;7.20;;
43744;SDS011;29359;53.048;8.732;2024-01-10T11:24:33;9.95;;;6.60;;
43744;SDS011;29359;53.048;8.732;2024-01-10T11:26:39;10.63;;;6.15;;
43744;SDS011;29359;53.048;8.732;2024-01-10T11:28:41;10.48;;;6.95;;
43744;SDS011;29359;53.048;8.732;2024-01-10T11:30:50;11.00;;;6.53;;
43744;SDS011;29359;53.048;8.732;2024-01-10T11:33:00;9.75;;;6.53;;
43744;SDS011;29359;53.048;8.732;2024-01-10T11:35:20;12.82;;;6.78;;
43744;SDS011;29359;53.048;8.732;2024-01-10T11:37:22;8.07;;;6.05;;
43744;SDS011;29359;53.048;8.732;2024-01-10T11:39:24;8.95;;;6.15;;
43744;SDS011;29359;53.048;8.732;2024-01-10T11:41:32;10.05;;;6.88;;
43744;SDS011;29359;53.048;8.732;2024-01-10T11:43:39;9.43;;;6.57;;
43744;SDS011;29359;53.048;8.732;2024-01-10T11:48:14;8.65;;;6.15;;
43744;SDS011;29359;53.048;8.732;2024-01-10T11:50:18;10.88;;;6.70;;
43744;SDS011;29359;53.048;8.732;2024-01-10T11:52:21;8.95;;;6.38;;
43744;SDS011;29359;53.048;8.732;2024-01-10T11:54:43;8.10;;;5.40;;
43744;SDS011;29359;53.048;8.732;2024-01-10T11:56:47;10.25;;;6.30;;
43744;SDS011;29359;53.048;8.732;2024-01-10T11:59:01;10.25;;;6.05;;
43744;SDS011;29359;53.048;8.732;2024-01-10T12:01:06;8.15;;;6.18;;
43744;SDS011;29359;53.048;8.732;2024-01-10T12:03:09;9.30;;;5.80;;
43744;SDS011;29359;53.048;8.732;2024-01-10T12:05:12;8.73;;;5.95;;
43744;SDS011;29359;53.048;8.732;2024-01-10T12:07:16;10.05;;;5.63;;
43744;SDS011;29359;53.048;8.732;2024-01-10T12:09:20;9.57;;;5.70;;
43744;SDS011;29359;53.048;8.732;2024-01-10T12:11:22;7.68;;;5.70;;
43744;SDS011;29359;53.048;8.732;2024-01-10T12:13:24;8.05;;;5.43;;
43744;SDS011;29359;53.048;8.732;2024-01-10T12:15:26;9.85;;;5.60;;
43744;SDS011;29359;53.048;8.732;2024-01-10T12:17:28;8.35;;;6.05;;
43744;SDS011;29359;53.048;8.732;2024-01-10T12:19:31;7.43;;;5.25;;
43744;SDS011;29359;53.048;8.732;2024-01-10T12:21:32;8.75;;;5.63;;
43744;SDS011;29359;53.048;8.732;2024-01-10T12:23:35;9.05;;;5.68;;